»·PEaware :: N6238A KSBA-KOXR

N6238A :: KSBA-KOXR

FLIGHT INFORMATION

Flight Status: Arrived
Operator: Privately registered:
United States
More flights under this callsign
Pilot: Gabriel W. (25094)
Aircraft: CESSNA 172 SKYHAWK
(C172)
More flights by this aircraft type
Origin: KSBA Santa Barbara Mun
United States
Destination: KOXR Oxnard
United States
More flights between these airports :: More routes between these airports
Route: +KWANG CMA
File this flight plan on PilotEdge
Remarks:
Altitude:
(Current/Filed)
5,000ft
Speed:
(Current/Filed)
115kts
Departed: 27-Aug-19 09:34 AM
Arrived: 27-Aug-19 10:11 AM
Distance/Time
Traveled:
34nm/0:37
Distance/Time
To Go:
Arrived

Flight Plot

Page will automatically refresh every two minutes.


Map Options




Map Legend


Flown Route
Filed Route
Departure Airport
Arrival Airport
Navaid (VOR, NDB)
Fix

Horizontal Profiles

Position Reports

Time Latitude Longitude Heading Altitude Ground
Speed
27-Aug-19 09:15 34.432569 -119.835085 71 14ft 0kts
27-Aug-19 09:15 34.432569 -119.835085 71 14ft 0kts
27-Aug-19 09:17 34.432569 -119.835085 71 14ft 0kts
27-Aug-19 09:17 34.432569 -119.835085 71 14ft 0kts
27-Aug-19 09:19 34.432569 -119.835085 71 14ft 0kts
27-Aug-19 09:20 34.432569 -119.835085 71 14ft 0kts
27-Aug-19 09:20 34.432569 -119.835085 71 14ft 0kts
27-Aug-19 09:22 34.432585 -119.835026 72 14ft 0kts
27-Aug-19 09:22 34.432599 -119.834971 72 14ft 0kts
27-Aug-19 09:23 34.432600 -119.834969 72 14ft 0kts
27-Aug-19 09:24 34.432600 -119.834969 72 14ft 0kts
27-Aug-19 09:25 34.432600 -119.834969 72 14ft 0kts
27-Aug-19 09:26 34.432600 -119.834969 72 14ft 0kts
27-Aug-19 09:27 34.432600 -119.834969 72 14ft 0kts
27-Aug-19 09:28 34.432600 -119.834969 72 14ft 0kts
27-Aug-19 09:29 34.432600 -119.834969 72 14ft 0kts
27-Aug-19 09:30 34.430972 -119.838891 251 14ft 24kts
27-Aug-19 09:31 34.430698 -119.839776 246 14ft 0kts
27-Aug-19 09:32 34.429963 -119.840128 169 14ft 24kts
27-Aug-19 09:33 34.412218 -119.833923 161 838ft 72kts
27-Aug-19 09:34 34.393118 -119.826906 160 1819ft 73kts
27-Aug-19 09:35 34.372897 -119.819706 161 2766ft 75kts
27-Aug-19 09:36 34.357943 -119.797909 100 2998ft 109kts
27-Aug-19 09:37 34.351438 -119.759686 103 2996ft 119kts
27-Aug-19 09:38 34.343804 -119.721026 104 2993ft 117kts
27-Aug-19 09:39 34.335914 -119.682797 104 2993ft 116kts
27-Aug-19 09:40 34.328032 -119.644711 104 2996ft 117kts
27-Aug-19 09:41 34.320066 -119.606324 104 2997ft 117kts
27-Aug-19 09:42 34.313287 -119.567230 94 3131ft 113kts
27-Aug-19 09:43 34.309692 -119.530262 94 3807ft 110kts
27-Aug-19 09:44 34.305625 -119.490470 96 3994ft 123kts
27-Aug-19 09:45 34.301539 -119.450114 95 3995ft 119kts
27-Aug-19 09:46 34.297473 -119.410447 94 3994ft 118kts
27-Aug-19 09:47 34.293423 -119.370745 95 3995ft 118kts
27-Aug-19 09:48 34.289521 -119.331455 95 3995ft 118kts
27-Aug-19 09:49 34.285536 -119.291862 95 3996ft 118kts
27-Aug-19 09:50 34.281576 -119.252166 95 3995ft 118kts
27-Aug-19 09:51 34.278011 -119.212784 95 3994ft 117kts
27-Aug-19 09:52 34.275454 -119.173506 95 3967ft 116kts
27-Aug-19 09:53 34.273538 -119.134835 95 3967ft 114kts
27-Aug-19 09:54 34.271645 -119.096499 96 3968ft 114kts
27-Aug-19 09:55 34.269737 -119.057971 95 3968ft 114kts
27-Aug-19 09:56 34.267866 -119.019488 95 3968ft 114kts
27-Aug-19 09:57 34.265987 -118.981003 95 3968ft 114kts
27-Aug-19 09:58 34.264124 -118.942539 94 3967ft 114kts
27-Aug-19 09:59 34.251020 -118.910643 142 3967ft 112kts
27-Aug-19 10:00 34.226495 -118.887204 142 3968ft 112kts
27-Aug-19 10:01 34.203557 -118.902359 241 3732ft 128kts
27-Aug-19 10:02 34.199005 -118.944082 267 3567ft 120kts
27-Aug-19 10:03 34.199130 -118.984081 268 3484ft 123kts
27-Aug-19 10:04 34.199460 -119.021904 268 2932ft 105kts
27-Aug-19 10:05 34.199790 -119.063594 268 2277ft 102kts
27-Aug-19 10:06 34.200054 -119.096998 268 1759ft 86kts
27-Aug-19 10:07 34.200247 -119.125425 268 1274ft 83kts
27-Aug-19 10:08 34.200445 -119.153249 268 829ft 82kts
27-Aug-19 10:09 34.200656 -119.180887 270 384ft 79kts
27-Aug-19 10:10 34.200749 -119.201810 270 40ft 39kts
27-Aug-19 10:11 34.199800 -119.203443 248 40ft 16kts

Navigation Log

Ident Type
Flight plan parsing failed, navigation log unavailable